createdAt,value
2022-11-28T00:00:44.707Z,3.60
2022-11-28T00:03:32.801Z,3.60
2022-11-28T00:06:08.860Z,3.52
2022-11-28T00:08:41.781Z,3.50
2022-11-28T00:11:17.591Z,3.50
2022-11-28T00:13:50.513Z,3.50
2022-11-28T00:16:25.059Z,3.40
2022-11-28T00:19:00.220Z,3.40
2022-11-28T00:21:32.958Z,3.40
2022-11-28T00:24:06.436Z,3.40
2022-11-28T00:26:41.735Z,3.32
2022-11-28T00:29:14.637Z,3.30
2022-11-28T00:31:47.187Z,3.30
2022-11-28T00:34:19.786Z,3.30
2022-11-28T00:36:52.678Z,3.30
2022-11-28T00:39:25.593Z,3.26
2022-11-28T00:41:58.333Z,3.20
2022-11-28T00:44:30.857Z,3.20
2022-11-28T00:47:03.512Z,3.20
2022-11-28T00:49:36.159Z,3.12
2022-11-28T00:52:08.870Z,3.10
2022-11-28T00:54:42.100Z,3.10
2022-11-28T00:57:14.814Z,3.10
2022-11-28T00:59:47.316Z,3.10
2022-11-28T01:02:20.016Z,3.04
2022-11-28T01:04:52.554Z,3.00
2022-11-28T01:07:25.089Z,3.00
2022-11-28T01:09:57.611Z,2.90
2022-11-28T01:12:30.043Z,2.90
2022-11-28T01:15:02.620Z,2.80
2022-11-28T01:17:35.103Z,2.80
2022-11-28T01:20:12.456Z,2.70
2022-11-28T01:22:44.928Z,2.60
2022-11-28T01:25:17.501Z,2.56
2022-11-28T01:27:49.984Z,2.50
2022-11-28T01:30:22.473Z,2.40
2022-11-28T01:32:58.039Z,2.32
2022-11-28T01:35:30.786Z,2.30
2022-11-28T01:38:03.263Z,2.20
2022-11-28T01:40:45.354Z,2.20
2022-11-28T01:43:17.916Z,2.10
2022-11-28T01:45:50.384Z,2.10
2022-11-28T01:48:27.858Z,2.00
2022-11-28T01:51:04.200Z,2.00
2022-11-28T01:53:41.107Z,1.90
2022-11-28T01:56:19.033Z,1.90
2022-11-28T01:58:55.571Z,1.90
2022-11-28T02:01:28.532Z,1.80
2022-11-28T02:04:01.773Z,1.80
2022-11-28T02:06:35.280Z,1.80
2022-11-28T02:09:10.939Z,1.80
2022-11-28T02:12:12.880Z,1.70
2022-11-28T02:15:20.216Z,1.70
2022-11-28T02:18:11.293Z,1.60
2022-11-28T02:21:29.369Z,1.50
2022-11-28T02:24:54.027Z,1.50
2022-11-28T02:27:54.156Z,1.40
2022-11-28T02:30:35.392Z,1.30
2022-11-28T02:33:22.573Z,1.30
2022-11-28T02:36:04.869Z,1.22
2022-11-28T02:38:49.693Z,1.20
2022-11-28T02:41:32.710Z,1.20
2022-11-28T02:44:14.230Z,1.20
2022-11-28T02:46:54.503Z,1.20
2022-11-28T02:49:34.243Z,1.28
2022-11-28T02:52:13.438Z,1.30
2022-11-28T02:54:47.148Z,1.34
2022-11-28T02:57:19.783Z,1.40
2022-11-28T02:59:55.599Z,1.40
2022-11-28T03:02:31.568Z,1.40
2022-11-28T03:05:14.072Z,1.40
2022-11-28T03:08:22.967Z,1.40
2022-11-28T03:11:04.921Z,1.50
2022-11-28T03:13:48.796Z,1.50
2022-11-28T03:16:30.622Z,1.50
2022-11-28T03:19:12.062Z,1.50
2022-11-28T03:21:50.195Z,1.60
2022-11-28T03:24:33.711Z,1.60
2022-11-28T03:27:11.551Z,1.68
2022-11-28T03:29:49.848Z,1.70
2022-11-28T03:32:27.467Z,1.70
2022-11-28T03:35:11.885Z,1.70
2022-11-28T03:37:49.408Z,1.80
2022-11-28T03:40:27.688Z,1.80
2022-11-28T03:43:06.346Z,1.80
2022-11-28T03:45:43.047Z,1.80
2022-11-28T03:48:19.428Z,1.86
2022-11-28T03:50:59.509Z,1.88
2022-11-28T03:53:37.416Z,1.80
2022-11-28T03:56:16.068Z,1.80
2022-11-28T03:58:55.951Z,1.70
2022-11-28T04:01:37.960Z,1.70
2022-11-28T04:04:21.454Z,1.70
2022-11-28T04:06:59.792Z,1.72
2022-11-28T04:09:44.222Z,1.72
2022-11-28T04:12:25.164Z,1.76
2022-11-28T04:15:01.887Z,1.70
2022-11-28T04:17:44.528Z,1.70
2022-11-28T04:20:25.185Z,1.70
2022-11-28T04:23:02.191Z,1.70
2022-11-28T04:25:36.770Z,1.70
2022-11-28T04:28:16.207Z,1.70
2022-11-28T04:30:51.945Z,1.70
2022-11-28T04:33:28.100Z,1.70
2022-11-28T04:36:02.877Z,1.70
2022-11-28T04:38:37.041Z,1.80
2022-11-28T04:41:16.041Z,1.70
2022-11-28T04:43:54.771Z,1.70
2022-11-28T04:46:32.727Z,1.70
2022-11-28T04:49:05.373Z,1.78
2022-11-28T04:51:46.032Z,1.80
2022-11-28T04:54:25.588Z,1.80
2022-11-28T04:57:03.301Z,1.80
2022-11-28T04:59:35.947Z,1.80
2022-11-28T05:02:09.891Z,1.82
2022-11-28T05:04:44.774Z,1.84
2022-11-28T05:07:17.707Z,1.82
2022-11-28T05:09:51.015Z,1.86
2022-11-28T05:12:23.582Z,1.88
2022-11-28T05:14:56.244Z,1.90
2022-11-28T05:17:28.752Z,1.90
2022-11-28T05:20:01.721Z,1.90
2022-11-28T05:22:34.274Z,1.96
2022-11-28T05:25:07.539Z,2.00
2022-11-28T05:27:40.057Z,2.00
2022-11-28T05:30:16.167Z,2.00
2022-11-28T05:32:49.219Z,2.00
2022-11-28T05:35:21.777Z,2.00
2022-11-28T05:37:54.287Z,2.00
2022-11-28T05:40:26.799Z,2.00
2022-11-28T05:42:59.283Z,2.00
2022-11-28T05:45:31.815Z,2.00
2022-11-28T05:48:04.356Z,2.00
2022-11-28T05:50:40.141Z,2.00
2022-11-28T05:53:13.515Z,2.02
2022-11-28T05:55:46.554Z,2.10
2022-11-28T05:58:19.028Z,2.10
2022-11-28T06:00:51.693Z,2.10
2022-11-28T06:03:24.215Z,2.10
2022-11-28T06:05:56.774Z,2.10
2022-11-28T06:08:29.302Z,2.10
2022-11-28T06:11:02.522Z,2.08
2022-11-28T06:13:35.184Z,2.00
2022-11-28T06:16:11.828Z,2.00
2022-11-28T06:18:44.418Z,2.00
2022-11-28T06:21:17.550Z,2.00
2022-11-28T06:23:50.083Z,2.00
2022-11-28T06:26:25.473Z,2.08
2022-11-28T06:28:58.622Z,2.10
2022-11-28T06:31:32.437Z,2.10
2022-11-28T06:34:04.915Z,2.08
2022-11-28T06:36:37.493Z,2.08
2022-11-28T06:39:11.211Z,2.10
2022-11-28T06:41:44.238Z,2.10
2022-11-28T06:44:18.868Z,2.18
2022-11-28T06:46:51.546Z,2.20
2022-11-28T06:49:24.288Z,2.20
2022-11-28T06:51:57.193Z,2.26
2022-11-28T06:54:30.026Z,2.30
2022-11-28T06:57:02.687Z,2.30
2022-11-28T06:59:35.297Z,2.30
2022-11-28T07:02:08.322Z,2.30
2022-11-28T07:04:41.311Z,2.40
2022-11-28T07:07:16.475Z,2.40
2022-11-28T07:09:49.382Z,2.40
2022-11-28T07:12:21.932Z,2.40
2022-11-28T07:14:54.539Z,2.48
2022-11-28T07:17:27.352Z,2.50
2022-11-28T07:19:59.931Z,2.50
2022-11-28T07:22:32.405Z,2.50
2022-11-28T07:25:05.018Z,2.60
2022-11-28T07:27:37.480Z,2.60
2022-11-28T07:30:12.714Z,2.62
2022-11-28T07:32:45.336Z,2.70
2022-11-28T07:35:17.976Z,2.80
2022-11-28T07:37:50.590Z,2.80
2022-11-28T07:40:23.255Z,2.80
2022-11-28T07:42:55.956Z,2.80
2022-11-28T07:45:47.149Z,2.84
2022-11-28T07:48:21.088Z,2.90
2022-11-28T07:50:53.589Z,2.80
2022-11-28T07:53:26.168Z,2.80
2022-11-28T07:56:01.861Z,2.80
2022-11-28T07:58:34.872Z,2.80
2022-11-28T08:01:15.524Z,2.80
2022-11-28T08:03:48.730Z,2.80
2022-11-28T08:06:23.772Z,2.80
2022-11-28T08:08:58.378Z,2.90
2022-11-28T08:11:31.836Z,2.90
2022-11-28T08:14:04.732Z,3.12
2022-11-28T08:16:41.374Z,3.58
2022-11-28T08:19:14.241Z,3.86
2022-11-28T08:21:46.696Z,4.00
2022-11-28T08:24:19.272Z,4.10
2022-11-28T08:26:51.730Z,4.20
2022-11-28T08:29:24.225Z,4.20
2022-11-28T08:31:56.866Z,4.10
2022-11-28T08:34:29.666Z,4.10
2022-11-28T08:37:02.211Z,4.10
2022-11-28T08:39:34.916Z,4.10
2022-11-28T08:42:07.984Z,4.10
2022-11-28T08:44:40.820Z,4.20
2022-11-28T08:47:13.404Z,4.26
2022-11-28T08:49:46.225Z,4.20
2022-11-28T08:52:19.041Z,4.26
2022-11-28T08:54:51.563Z,4.30
2022-11-28T08:57:24.322Z,4.50
2022-11-28T08:59:56.922Z,4.62
2022-11-28T09:02:29.616Z,4.80
2022-11-28T09:05:02.922Z,4.90
2022-11-28T09:07:35.435Z,4.94
2022-11-28T09:10:10.336Z,4.94
2022-11-28T09:12:43.184Z,4.90
2022-11-28T09:15:16.085Z,4.90
2022-11-28T09:17:48.666Z,4.80
2022-11-28T09:20:21.968Z,4.70
2022-11-28T09:22:54.477Z,4.70
2022-11-28T09:25:27.168Z,4.80
2022-11-28T09:28:01.437Z,5.00
2022-11-28T09:30:34.201Z,5.10
2022-11-28T09:33:07.351Z,5.16
2022-11-28T09:35:42.147Z,5.20
2022-11-28T09:38:14.656Z,5.20
2022-11-28T09:40:49.125Z,5.20
2022-11-28T09:43:30.111Z,5.20
2022-11-28T09:46:07.386Z,5.20
2022-11-28T09:48:44.382Z,5.20
2022-11-28T09:51:27.141Z,5.28
2022-11-28T09:54:09.255Z,5.36
2022-11-28T09:56:42.163Z,5.50
2022-11-28T09:59:28.557Z,5.52
2022-11-28T10:02:16.388Z,5.90
2022-11-28T10:05:00.107Z,7.74
2022-11-28T10:07:44.561Z,9.62
2022-11-28T10:10:30.297Z,10.90
2022-11-28T10:13:14.728Z,11.78
2022-11-28T10:16:02.739Z,11.90
2022-11-28T10:18:44.856Z,11.72
2022-11-28T10:21:29.492Z,12.60
2022-11-28T10:24:06.062Z,12.66
2022-11-28T10:26:40.151Z,12.24
2022-11-28T10:29:26.775Z,12.20
2022-11-28T10:32:02.902Z,13.00
2022-11-28T10:34:42.513Z,13.48
2022-11-28T10:37:20.984Z,13.96
2022-11-28T10:39:54.317Z,14.48
2022-11-28T10:42:33.946Z,14.70
2022-11-28T10:45:19.656Z,14.16
2022-11-28T10:48:38.668Z,12.92
2022-11-28T10:51:21.291Z,11.42
2022-11-28T10:54:11.590Z,10.66
2022-11-28T10:56:52.722Z,10.24
2022-11-28T10:59:37.331Z,9.86
2022-11-28T11:02:31.043Z,9.44
2022-11-28T11:05:03.683Z,9.14
2022-11-28T11:07:37.225Z,8.90
2022-11-28T11:10:21.017Z,8.80
2022-11-28T11:12:54.783Z,8.80
2022-11-28T11:15:33.734Z,8.90
2022-11-28T11:18:22.137Z,8.90
2022-11-28T11:21:08.509Z,8.92
2022-11-28T11:23:41.047Z,8.90
2022-11-28T11:26:24.548Z,8.82
2022-11-28T11:28:57.571Z,8.72
2022-11-28T11:31:33.290Z,8.70
2022-11-28T11:34:17.096Z,8.70
2022-11-28T11:36:50.128Z,8.60
2022-11-28T11:39:26.557Z,8.60
2022-11-28T11:42:23.343Z,8.60
2022-11-28T11:44:58.712Z,8.58
2022-11-28T11:47:46.209Z,8.50
2022-11-28T11:50:24.550Z,8.32
2022-11-28T11:53:15.278Z,8.30
2022-11-28T11:55:53.426Z,8.20
2022-11-28T11:58:30.367Z,8.16
2022-11-28T12:01:04.426Z,8.10
2022-11-28T12:03:42.013Z,7.90
2022-11-28T12:06:23.215Z,7.80
2022-11-28T12:09:02.647Z,7.70
2022-11-28T12:11:45.469Z,7.60
2022-11-28T12:14:33.816Z,7.50
2022-11-28T12:20:37.745Z,7.40
2022-11-28T12:23:26.146Z,7.30
2022-11-28T12:26:10.741Z,7.28
2022-11-28T12:29:01.354Z,7.10
2022-11-28T12:31:46.113Z,6.94
2022-11-28T12:34:31.701Z,6.80
2022-11-28T12:37:16.376Z,6.70
2022-11-28T12:40:01.038Z,6.60
2022-11-28T12:43:03.098Z,6.50
2022-11-28T12:45:48.859Z,6.40
2022-11-28T12:48:40.569Z,6.40
2022-11-28T12:51:24.502Z,6.40
2022-11-28T12:54:17.931Z,6.40
2022-11-28T12:57:03.482Z,6.40
2022-11-28T12:59:44.796Z,6.40
2022-11-28T13:02:33.320Z,6.46
2022-11-28T13:05:32.584Z,6.50
2022-11-28T13:08:48.260Z,6.50
2022-11-28T13:11:38.777Z,6.40
2022-11-28T13:14:23.396Z,6.40
2022-11-28T13:17:13.662Z,6.30
2022-11-28T13:19:56.357Z,6.28
2022-11-28T13:22:37.176Z,6.20
2022-11-28T13:25:23.834Z,6.10
2022-11-28T13:28:07.972Z,6.06
2022-11-28T13:30:47.850Z,6.00
2022-11-28T13:33:37.196Z,5.94
2022-11-28T13:39:18.564Z,5.88
2022-11-28T13:42:28.298Z,5.80
2022-11-28T13:45:01.473Z,5.80
2022-11-28T13:47:37.182Z,5.72
2022-11-28T13:50:39.325Z,5.70
2022-11-28T13:53:28.683Z,5.66
2022-11-28T13:56:27.741Z,5.60
2022-11-28T13:59:02.903Z,5.50
2022-11-28T14:01:49.766Z,5.50
2022-11-28T14:04:22.811Z,5.40
2022-11-28T14:07:00.138Z,5.40
2022-11-28T14:09:44.802Z,5.30
2022-11-28T14:12:26.141Z,5.30
2022-11-28T14:15:23.177Z,5.28
2022-11-28T14:18:31.463Z,5.20
2022-11-28T14:21:17.952Z,5.10
2022-11-28T14:23:59.233Z,5.10
2022-11-28T14:26:37.365Z,5.00
2022-11-28T14:29:22.661Z,4.98
2022-11-28T14:32:22.180Z,4.90
2022-11-28T14:34:51.019Z,4.90
2022-11-28T14:37:56.267Z,4.80
2022-11-28T14:41:11.849Z,4.78
2022-11-28T14:43:46.926Z,4.70
2022-11-28T14:46:32.705Z,4.66
2022-11-28T14:49:27.193Z,4.60
2022-11-28T14:52:41.198Z,4.52
2022-11-28T14:55:25.939Z,4.48
2022-11-28T14:58:03.127Z,4.40
2022-11-28T15:00:47.643Z,4.40
2022-11-28T15:03:37.276Z,4.30
2022-11-28T15:06:19.208Z,4.30
2022-11-28T15:09:04.613Z,4.30
2022-11-28T15:12:08.611Z,4.30
2022-11-28T15:14:43.730Z,4.30
2022-11-28T15:17:21.070Z,4.30
2022-11-28T15:19:54.949Z,4.30
2022-11-28T15:22:42.824Z,4.30
2022-11-28T15:25:25.281Z,4.40
2022-11-28T15:28:00.333Z,4.40
2022-11-28T15:30:34.193Z,4.40
2022-11-28T15:33:07.244Z,4.50
2022-11-28T15:35:40.145Z,4.50
2022-11-28T15:38:20.103Z,4.50
2022-11-28T15:40:55.853Z,4.60
2022-11-28T15:43:30.757Z,4.60
2022-11-28T15:46:06.034Z,4.60
2022-11-28T15:48:48.283Z,4.60
2022-11-28T15:51:30.541Z,4.62
2022-11-28T15:54:04.864Z,4.70
2022-11-28T15:56:38.619Z,4.70
2022-11-28T15:59:13.769Z,4.70
2022-11-28T16:01:47.395Z,4.70
2022-11-28T16:04:25.124Z,4.70
2022-11-28T16:07:00.311Z,4.70
2022-11-28T16:09:36.156Z,4.70
2022-11-28T16:12:15.706Z,4.70
2022-11-28T16:14:49.647Z,4.70
2022-11-28T16:17:27.299Z,4.70
2022-11-28T16:20:00.641Z,4.70
2022-11-28T16:22:37.789Z,4.70
2022-11-28T16:25:24.491Z,4.70
2022-11-28T16:27:57.825Z,4.72
2022-11-28T16:30:47.637Z,4.72
2022-11-28T16:33:42.231Z,4.70
2022-11-28T16:36:27.372Z,4.70
2022-11-28T16:39:14.596Z,4.72
2022-11-28T16:41:52.233Z,4.70
2022-11-28T16:44:26.687Z,4.70
2022-11-28T16:47:00.571Z,4.70
2022-11-28T16:49:40.636Z,4.70
2022-11-28T16:52:47.184Z,4.70
2022-11-28T16:55:46.825Z,4.70
2022-11-28T16:58:23.463Z,4.62
2022-11-28T17:01:06.516Z,4.60
2022-11-28T17:03:51.760Z,4.60
2022-11-28T17:06:34.224Z,4.60
2022-11-28T17:09:08.280Z,4.50
2022-11-28T17:11:45.052Z,4.50
2022-11-28T17:14:17.917Z,4.50
2022-11-28T17:16:50.755Z,4.50
2022-11-28T17:19:23.306Z,4.50
2022-11-28T17:21:58.845Z,4.50
2022-11-28T17:24:35.649Z,4.50
2022-11-28T17:27:09.170Z,4.50
2022-11-28T17:29:42.698Z,4.50
2022-11-28T17:32:16.986Z,4.48
2022-11-28T17:34:49.589Z,4.44
2022-11-28T17:37:22.374Z,4.40
2022-11-28T17:40:12.457Z,4.40
2022-11-28T17:42:45.061Z,4.36
2022-11-28T17:45:18.247Z,4.30
2022-11-28T17:47:50.825Z,4.30
2022-11-28T17:50:23.486Z,4.30
2022-11-28T17:52:56.360Z,4.28
2022-11-28T17:55:29.142Z,4.20
2022-11-28T17:58:01.769Z,4.20
2022-11-28T18:00:34.336Z,4.20
2022-11-28T18:03:07.791Z,4.20
2022-11-28T18:05:43.564Z,4.20
2022-11-28T18:08:21.923Z,4.20
2022-11-28T18:11:04.931Z,4.10
2022-11-28T18:13:41.512Z,4.10
2022-11-28T18:16:15.329Z,4.10
2022-11-28T18:18:48.781Z,4.10
2022-11-28T18:21:22.048Z,4.04
2022-11-28T18:23:54.985Z,4.00
2022-11-28T18:26:29.077Z,4.00
2022-11-28T18:29:03.972Z,4.00
2022-11-28T18:31:38.613Z,4.00
2022-11-28T18:34:12.370Z,3.94
2022-11-28T18:36:45.350Z,3.90
2022-11-28T18:39:18.160Z,3.90
2022-11-28T18:41:51.083Z,3.90
2022-11-28T18:44:24.140Z,3.90
2022-11-28T18:46:57.176Z,3.90
2022-11-28T18:49:30.128Z,3.90
2022-11-28T18:52:03.126Z,3.90
2022-11-28T18:54:38.591Z,3.90
2022-11-28T18:57:12.196Z,3.90
2022-11-28T18:59:52.878Z,3.90
2022-11-28T19:02:28.027Z,3.90
2022-11-28T19:05:01.361Z,3.90
2022-11-28T19:07:33.943Z,3.90
2022-11-28T19:10:07.446Z,3.90
2022-11-28T19:12:41.326Z,3.90
2022-11-28T19:15:14.396Z,3.90
2022-11-28T19:17:47.113Z,3.92
2022-11-28T19:20:20.145Z,3.90
2022-11-28T19:22:53.555Z,3.90
2022-11-28T19:25:27.372Z,3.90
2022-11-28T19:28:00.148Z,3.90
2022-11-28T19:30:33.119Z,3.90
2022-11-28T19:33:06.590Z,3.80
2022-11-28T19:35:39.424Z,3.80
2022-11-28T19:38:12.187Z,3.80
2022-11-28T19:40:45.182Z,3.80
2022-11-28T19:43:17.775Z,3.80
2022-11-28T19:45:59.422Z,3.70
2022-11-28T19:48:34.759Z,3.70
2022-11-28T19:51:09.466Z,3.70
2022-11-28T19:53:45.031Z,3.64
2022-11-28T19:56:20.266Z,3.60
2022-11-28T19:58:53.286Z,3.62
2022-11-28T20:01:27.085Z,3.60
2022-11-28T20:04:00.558Z,3.62
2022-11-28T20:06:35.336Z,3.64
2022-11-28T20:09:12.624Z,3.66
2022-11-28T20:11:47.809Z,3.70
2022-11-28T20:14:22.364Z,3.64
2022-11-28T20:16:55.787Z,3.62
2022-11-28T20:19:29.236Z,3.60
2022-11-28T20:22:02.566Z,3.60
2022-11-28T20:24:35.459Z,3.60
2022-11-28T20:27:08.731Z,3.60
2022-11-28T20:29:41.632Z,3.60
2022-11-28T20:32:14.634Z,3.60
2022-11-28T20:34:48.247Z,3.60
2022-11-28T20:37:21.099Z,3.50
2022-11-28T20:39:53.895Z,3.50
2022-11-28T20:42:26.651Z,3.48
2022-11-28T20:44:59.133Z,3.40
2022-11-28T20:47:34.603Z,3.30
2022-11-28T20:50:09.615Z,3.30
2022-11-28T20:52:42.255Z,3.20
2022-11-28T20:55:15.512Z,3.20
2022-11-28T20:57:48.394Z,3.20
2022-11-28T21:00:26.618Z,3.14
2022-11-28T21:02:59.535Z,3.10
2022-11-28T21:05:32.103Z,3.10
2022-11-28T21:08:04.989Z,3.10
2022-11-28T21:10:38.706Z,3.10
2022-11-28T21:13:11.441Z,3.10
2022-11-28T21:15:46.733Z,3.10
2022-11-28T21:18:19.536Z,3.10
2022-11-28T21:20:53.046Z,3.00
2022-11-28T21:23:25.750Z,3.00
2022-11-28T21:25:58.324Z,3.00
2022-11-28T21:28:30.845Z,3.00
2022-11-28T21:31:07.598Z,3.00
2022-11-28T21:33:40.358Z,3.00
2022-11-28T21:36:15.391Z,3.00
2022-11-28T21:38:52.034Z,3.00
2022-11-28T21:41:28.538Z,3.04
2022-11-28T21:44:02.275Z,3.02
2022-11-28T21:46:34.866Z,3.00
2022-11-28T21:49:07.438Z,3.06
2022-11-28T21:51:43.393Z,3.02
2022-11-28T21:54:16.556Z,3.00
2022-11-28T21:56:50.368Z,3.00
2022-11-28T21:59:23.821Z,3.00
2022-11-28T22:01:56.611Z,3.00
2022-11-28T22:04:29.278Z,3.00
2022-11-28T22:07:01.807Z,3.00
2022-11-28T22:09:34.911Z,2.98
2022-11-28T22:12:09.055Z,3.00
2022-11-28T22:14:41.588Z,3.00
2022-11-28T22:17:14.369Z,2.98
2022-11-28T22:19:47.666Z,2.90
2022-11-28T22:22:20.289Z,2.90
2022-11-28T22:24:52.827Z,2.90
2022-11-28T22:27:25.629Z,2.90
2022-11-28T22:29:58.792Z,2.90
2022-11-28T22:32:34.447Z,2.90
2022-11-28T22:35:09.430Z,2.90
2022-11-28T22:37:42.226Z,2.86
2022-11-28T22:40:17.501Z,2.88
2022-11-28T22:42:50.121Z,2.88
2022-11-28T22:45:23.036Z,2.90
2022-11-28T22:47:55.789Z,2.90
2022-11-28T22:50:28.332Z,2.90
2022-11-28T22:53:00.914Z,2.90
2022-11-28T22:55:35.665Z,2.90
2022-11-28T22:58:08.524Z,2.90
2022-11-28T23:00:41.382Z,2.90
2022-11-28T23:03:14.293Z,2.90
2022-11-28T23:05:49.299Z,2.90
2022-11-28T23:08:24.060Z,2.90
2022-11-28T23:10:57.286Z,2.90
2022-11-28T23:13:30.132Z,2.90
2022-11-28T23:16:15.213Z,2.90
2022-11-28T23:18:50.430Z,2.90
2022-11-28T23:21:24.916Z,2.90
2022-11-28T23:23:57.752Z,2.90
2022-11-28T23:26:33.919Z,2.90
2022-11-28T23:29:08.631Z,2.84
2022-11-28T23:31:42.824Z,2.80
2022-11-28T23:34:16.419Z,2.80
2022-11-28T23:36:49.762Z,2.80
2022-11-28T23:39:24.327Z,2.80
2022-11-28T23:41:59.043Z,2.80
2022-11-28T23:44:31.612Z,2.80
2022-11-28T23:47:04.332Z,2.80
2022-11-28T23:49:36.910Z,2.78
2022-11-28T23:52:09.772Z,2.80
2022-11-28T23:54:42.484Z,2.80
2022-11-28T23:57:15.407Z,2.80
2022-11-28T23:59:47.910Z,2.76
